Time;durP1;ratioP1;P1;durP2;ratioP2;P2;SDS_P1;SDS_P2;PMS_P1;PMS_P2;Temp;Humidity;BMP_temperature;BMP_pressure;BME280_temperature;BME280_humidity;BME280_pressure;Samples;Min_cycle;Max_cycle;Signal;HPM_P1;HPM_P2
2022/05/05 00:00:07;;;;;;;6.93;4.72;;;;;;;20.86;37.73;101294.31;4980530;28;96820;-69
2022/05/05 00:02:34;;;;;;;7.45;5.50;;;;;;;21.01;37.06;101294.09;4988483;28;100037;-69
2022/05/05 00:05:02;;;;;;;6.22;5.05;;;;;;;20.99;37.51;101290.69;4984241;28;98785;-68
2022/05/05 00:07:28;;;;;;;9.98;5.10;;;;;;;21.09;37.04;101289.03;4984761;28;96692;-68
2022/05/05 00:09:55;;;;;;;10.70;6.22;;;;;;;20.60;37.85;101297.00;4984372;28;99375;-67
2022/05/05 00:15:02;;;;;;;6.05;5.10;;;;;;;20.58;38.11;101285.50;4962960;28;97429;-69
2022/05/05 00:17:28;;;;;;;8.30;5.10;;;;;;;20.50;38.29;101281.59;4984454;28;96629;-68
2022/05/05 00:19:55;;;;;;;6.80;6.05;;;;;;;20.72;37.66;101287.22;4981716;28;97799;-68
2022/05/05 00:22:22;;;;;;;7.03;5.80;;;;;;;20.32;38.68;101291.75;4989003;28;97845;-69
2022/05/05 00:24:49;;;;;;;6.20;5.25;;;;;;;20.44;38.33;101279.34;4979576;28;98983;-68
2022/05/05 00:27:15;;;;;;;7.35;5.60;;;;;;;20.26;38.75;101279.59;4983440;28;98794;-68
2022/05/05 00:29:42;;;;;;;6.07;5.22;;;;;;;20.49;38.38;101283.41;4983280;28;99124;-68
2022/05/05 00:32:09;;;;;;;9.25;5.30;;;;;;;20.49;38.55;101286.09;4984028;28;98832;-69
2022/05/05 00:34:35;;;;;;;7.30;5.50;;;;;;;20.57;38.13;101277.53;4983551;28;99193;-69
2022/05/05 00:37:01;;;;;;;5.70;5.13;;;;;;;20.75;37.89;101278.94;4979180;28;98200;-69
2022/05/05 00:39:29;;;;;;;8.70;5.72;;;;;;;20.61;37.55;101285.25;4983753;28;96795;-68
2022/05/05 00:41:57;;;;;;;9.15;5.75;;;;;;;20.56;37.99;101291.91;4990755;28;98823;-68
2022/05/05 00:44:23;;;;;;;8.90;5.63;;;;;;;19.95;38.81;101292.47;4984594;28;97621;-69
2022/05/05 00:46:51;;;;;;;13.43;5.78;;;;;;;19.92;39.09;101296.22;4980385;28;96658;-68
2022/05/05 00:49:18;;;;;;;11.05;6.03;;;;;;;19.25;40.83;101292.47;4987254;28;98510;-67
2022/05/05 00:51:44;;;;;;;12.43;6.47;;;;;;;19.27;41.79;101293.25;4982400;28;97878;-67
2022/05/05 00:54:11;;;;;;;11.02;6.53;;;;;;;19.19;42.57;101286.63;4984146;28;98744;-68
2022/05/05 00:56:41;;;;;;;12.40;6.50;;;;;;;18.64;45.05;101298.09;4982237;28;97219;-69
2022/05/05 00:59:09;;;;;;;10.85;7.65;;;;;;;19.15;44.60;101307.41;4982198;28;96973;-70
2022/05/05 01:01:36;;;;;;;11.52;7.05;;;;;;;19.05;45.19;101319.63;4978455;28;99022;-68
2022/05/05 01:04:03;;;;;;;10.25;7.15;;;;;;;19.12;45.50;101310.25;4985692;28;99023;-69
2022/05/05 01:06:30;;;;;;;11.95;7.45;;;;;;;18.66;46.95;101318.44;4981112;28;97556;-69
2022/05/05 01:08:57;;;;;;;13.35;7.95;;;;;;;19.12;46.03;101334.38;4989603;28;96858;-70
2022/05/05 01:11:23;;;;;;;13.68;7.20;;;;;;;19.03;45.88;101326.91;4984260;28;98210;-69
2022/05/05 01:13:51;;;;;;;9.85;6.82;;;;;;;18.69;46.71;101326.28;4986133;28;98221;-69
2022/05/05 01:16:18;;;;;;;8.38;7.00;;;;;;;18.85;46.54;101326.22;4979146;28;99047;-68
2022/05/05 01:18:44;;;;;;;10.05;6.53;;;;;;;18.25;47.77;101338.69;4982627;28;97106;-68
2022/05/05 01:21:11;;;;;;;9.07;6.53;;;;;;;17.75;49.42;101334.44;4982404;28;101986;-69
2022/05/05 01:23:39;;;;;;;9.10;6.20;;;;;;;17.52;50.22;101334.81;4983890;28;97693;-68
2022/05/05 01:28:50;;;;;;;11.02;6.35;;;;;;;17.76;50.63;101333.50;4979811;28;97795;-69
2022/05/05 01:31:17;;;;;;;15.43;6.43;;;;;;;17.91;50.73;101318.41;4979486;28;99265;-69
2022/05/05 01:33:43;;;;;;;11.05;5.18;;;;;;;17.22;51.38;101323.97;4985091;28;98797;-69
2022/05/05 01:36:11;;;;;;;10.65;5.22;;;;;;;17.60;50.72;101316.53;4979291;28;96861;-69
2022/05/05 01:38:40;;;;;;;8.90;5.10;;;;;;;17.21;51.31;101310.72;4978515;28;97835;-69
2022/05/05 01:41:11;;;;;;;9.65;6.03;;;;;;;17.75;50.24;101310.38;4981947;28;99416;-69
2022/05/05 01:43:39;;;;;;;12.35;5.38;;;;;;;17.68;50.53;101318.81;4978664;28;98738;-69
2022/05/05 01:46:06;;;;;;;10.98;5.22;;;;;;;17.22;50.75;101317.78;4974034;28;97118;-69
2022/05/05 01:48:33;;;;;;;8.60;4.90;;;;;;;17.49;50.70;101322.50;4982471;28;97596;-67
2022/05/05 01:51:00;;;;;;;11.27;5.25;;;;;;;17.67;49.69;101331.31;4981674;28;99504;-70
2022/05/05 01:53:27;;;;;;;12.80;4.88;;;;;;;17.53;49.73;101333.84;4985387;28;98806;-70
2022/05/05 01:55:55;;;;;;;11.55;5.05;;;;;;;17.79;49.33;101327.94;4978650;28;97674;-68
2022/05/05 01:58:23;;;;;;;8.88;4.50;;;;;;;17.90;48.88;101330.91;4979348;28;97078;-70
2022/05/05 02:00:49;;;;;;;9.60;5.22;;;;;;;18.12;48.63;101337.69;4986683;28;97915;-70
2022/05/05 02:03:16;;;;;;;9.52;5.32;;;;;;;17.64;49.67;101347.53;4983597;28;98899;-70
2022/05/05 02:05:43;;;;;;;9.40;5.28;;;;;;;17.40;50.30;101344.34;4977787;28;97797;-69
2022/05/05 02:08:10;;;;;;;11.98;5.55;;;;;;;17.32;50.54;101351.94;4978945;28;98048;-69
2022/05/05 02:10:37;;;;;;;14.63;6.15;;;;;;;17.82;49.66;101351.84;4975619;28;98856;-69
2022/05/05 02:13:06;;;;;;;14.02;5.60;;;;;;;18.09;49.05;101360.13;4976973;28;98795;-70
2022/05/05 02:15:34;;;;;;;11.50;5.13;;;;;;;18.14;48.36;101354.50;4984529;28;96799;-68
2022/05/05 02:18:07;;;;;;;11.30;5.95;;;;;;;17.85;49.35;101357.00;4982532;28;97213;-68
2022/05/05 02:20:33;;;;;;;12.38;6.45;;;;;;;17.80;49.62;101359.09;4981672;28;98304;-68
2022/05/05 02:23:00;;;;;;;16.88;5.93;;;;;;;17.67;50.14;101363.38;4977249;28;99030;-69
2022/05/05 02:25:26;;;;;;;10.57;6.47;;;;;;;17.50;50.40;101374.97;4984499;28;96829;-69
2022/05/05 02:27:54;;;;;;;14.45;6.80;;;;;;;17.94;49.71;101379.72;4983596;28;98951;-70
2022/05/05 02:30:23;;;;;;;16.55;6.88;;;;;;;17.33;51.53;101387.50;4983254;28;98984;-70
2022/05/05 02:32:50;;;;;;;8.88;6.00;;;;;;;17.72;50.98;101388.03;4983561;28;99054;-70
2022/05/05 02:35:18;;;;;;;12.85;6.18;;;;;;;18.12;50.72;101383.16;4982565;28;97871;-70
2022/05/05 02:40:28;;;;;;;15.65;6.00;;;;;;;18.03;50.22;101391.72;4981751;28;97155;-70
2022/05/05 02:42:56;;;;;;;13.52;5.78;;;;;;;17.94;50.34;101395.75;4986130;28;101494;-70
2022/05/05 02:45:24;;;;;;;9.75;6.30;;;;;;;17.85;50.69;101394.44;4982920;28;96841;-69
2022/05/05 02:47:51;;;;;;;13.73;7.00;;;;;;;17.98;50.49;101393.78;4981057;28;97220;-69
2022/05/05 02:50:18;;;;;;;16.15;7.05;;;;;;;18.01;50.70;101398.94;4984442;28;99868;-70
2022/05/05 02:52:47;;;;;;;17.10;6.88;;;;;;;18.16;50.49;101393.59;4981892;28;98607;-70
2022/05/05 02:55:13;;;;;;;11.77;6.40;;;;;;;18.07;50.78;101395.91;4979729;28;96948;-68
2022/05/05 02:57:40;;;;;;;13.85;6.40;;;;;;;18.20;50.80;101399.63;4981162;28;98619;-68
2022/05/05 03:00:11;;;;;;;9.95;6.10;;;;;;;18.43;50.26;101403.69;4978608;28;99608;-67
2022/05/05 03:02:41;;;;;;;12.38;7.05;;;;;;;18.33;49.68;101398.84;4975515;28;98010;-67
2022/05/05 03:05:09;;;;;;;14.82;7.00;;;;;;;18.50;50.16;101397.88;4981538;28;96817;-68
2022/05/05 03:07:36;;;;;;;12.27;7.70;;;;;;;18.47;49.31;101398.06;4980341;28;98782;-68
2022/05/05 03:10:02;;;;;;;10.88;6.82;;;;;;;18.40;49.35;101412.72;4980652;28;98835;-70
2022/05/05 03:12:29;;;;;;;11.90;6.63;;;;;;;17.90;50.94;101416.47;4977271;28;98497;-70
2022/05/05 03:14:55;;;;;;;12.07;6.55;;;;;;;18.54;49.46;101425.31;4985588;28;97076;-69
2022/05/05 03:17:22;;;;;;;12.82;6.75;;;;;;;18.56;49.64;101424.31;4986998;28;97737;-69
2022/05/05 03:19:49;;;;;;;12.68;6.70;;;;;;;18.68;49.22;101423.59;4987413;28;99347;-69
2022/05/05 03:22:16;;;;;;;12.60;6.60;;;;;;;18.53;49.78;101424.47;4987637;28;99296;-70
2022/05/05 03:24:43;;;;;;;13.45;7.32;;;;;;;18.30;50.31;101425.78;4987629;28;97099;-70
2022/05/05 03:27:09;;;;;;;13.23;7.40;;;;;;;18.37;50.49;101433.47;4985958;28;96987;-70
2022/05/05 03:29:35;;;;;;;12.98;6.95;;;;;;;18.46;50.76;101433.78;4978460;28;98875;-71
2022/05/05 03:32:02;;;;;;;11.43;6.75;;;;;;;18.07;52.80;101426.22;4985887;28;98831;-71
2022/05/05 03:34:28;;;;;;;13.65;7.15;;;;;;;17.40;55.58;101432.50;4981780;28;97262;-71
2022/05/05 03:36:56;;;;;;;19.38;8.05;;;;;;;17.87;53.61;101434.47;4980868;28;97215;-68
2022/05/05 03:39:23;;;;;;;16.38;8.27;;;;;;;18.19;52.84;101433.53;4986739;28;100800;-67
2022/05/05 03:41:49;;;;;;;12.75;7.03;;;;;;;18.24;51.73;101434.16;4983723;28;97169;-67
2022/05/05 03:44:16;;;;;;;10.38;6.55;;;;;;;18.30;52.37;101427.59;4984095;28;97268;-68
2022/05/05 03:46:42;;;;;;;15.50;7.72;;;;;;;18.02;53.20;101430.94;4980110;28;96991;-69
2022/05/05 03:49:09;;;;;;;13.25;7.93;;;;;;;17.35;54.98;101439.91;4980402;28;98964;-68
2022/05/05 03:51:35;;;;;;;15.82;8.00;;;;;;;17.45;54.64;101433.16;4980946;28;99388;-68
2022/05/05 03:54:03;;;;;;;17.08;8.88;;;;;;;17.16;55.05;101436.47;4991312;28;97229;-68
2022/05/05 03:56:30;;;;;;;12.45;7.15;;;;;;;17.19;54.54;101431.00;4984208;28;97104;-69
2022/05/05 03:58:56;;;;;;;14.45;8.52;;;;;;;17.54;54.47;101429.09;4988353;28;98648;-69
2022/05/05 04:01:23;;;;;;;14.77;7.95;;;;;;;17.54;53.89;101426.44;4983474;28;99096;-68
2022/05/05 04:03:49;;;;;;;13.75;7.65;;;;;;;17.67;54.15;101426.66;4984006;28;97608;-69
2022/05/05 04:06:18;;;;;;;14.00;7.50;;;;;;;17.18;55.34;101417.72;4981331;28;97111;-68
2022/05/05 04:08:45;;;;;;;11.93;7.10;;;;;;;16.57;56.62;101421.66;4987052;28;99337;-69
2022/05/05 04:11:13;;;;;;;13.60;8.10;;;;;;;16.51;57.14;101427.28;4980070;28;98882;-68
2022/05/05 04:13:40;;;;;;;16.20;8.95;;;;;;;16.61;55.90;101417.91;4981838;28;97061;-68
2022/05/05 04:16:06;;;;;;;13.80;8.10;;;;;;;16.97;56.46;101419.69;4985361;28;98359;-68
2022/05/05 04:18:33;;;;;;;14.82;7.75;;;;;;;17.49;54.70;101420.47;4980612;28;101626;-68
2022/05/05 04:20:59;;;;;;;15.80;7.82;;;;;;;17.34;54.87;101423.97;4981761;28;98869;-68
2022/05/05 04:23:26;;;;;;;10.30;7.80;;;;;;;16.90;55.69;101426.28;4982708;28;96784;-68
2022/05/05 04:25:53;;;;;;;16.08;8.38;;;;;;;16.98;55.75;101427.63;4982839;28;96851;-69
2022/05/05 04:28:22;;;;;;;12.77;8.13;;;;;;;16.92;55.43;101422.59;4979908;28;100215;-67
2022/05/05 04:30:48;;;;;;;14.52;7.97;;;;;;;16.92;55.73;101429.72;4985722;28;99492;-67
2022/05/05 04:33:15;;;;;;;11.68;7.53;;;;;;;16.91;55.53;101436.00;4981770;28;96902;-68
2022/05/05 04:35:41;;;;;;;14.15;8.00;;;;;;;16.22;56.76;101441.16;4980355;28;96983;-69
2022/05/05 04:38:09;;;;;;;13.50;8.65;;;;;;;16.90;55.41;101456.50;4978987;28;99358;-69
2022/05/05 04:40:38;;;;;;;15.18;8.80;;;;;;;17.57;53.18;101454.81;4978901;28;98574;-68
2022/05/05 04:43:05;;;;;;;17.33;8.32;;;;;;;17.31;53.48;101451.72;4987119;28;96959;-68
2022/05/05 04:45:33;;;;;;;13.55;8.32;;;;;;;17.59;52.57;101460.94;4989563;28;97048;-69
2022/05/05 04:47:59;;;;;;;14.38;9.00;;;;;;;18.00;51.82;101461.38;4987270;28;99092;-68
2022/05/05 04:50:26;;;;;;;17.15;8.50;;;;;;;17.16;53.64;101473.00;4984052;28;102570;-68
2022/05/05 04:52:52;;;;;;;14.63;9.02;;;;;;;17.68;53.14;101466.69;4985098;28;97784;-68
2022/05/05 04:55:19;;;;;;;18.58;8.55;;;;;;;17.64;52.83;101470.47;4990095;28;97125;-68
2022/05/05 04:57:46;;;;;;;17.65;8.88;;;;;;;17.67;52.70;101480.97;4981900;28;97822;-69
2022/05/05 05:00:13;;;;;;;13.75;8.77;;;;;;;17.78;52.82;101477.75;4980837;28;101374;-68
2022/05/05 05:02:40;;;;;;;15.02;8.15;;;;;;;18.32;51.28;101482.72;4984083;28;97211;-69
2022/05/05 05:05:08;;;;;;;14.63;8.55;;;;;;;18.08;51.41;101484.09;4980537;28;97357;-68
2022/05/05 05:07:35;;;;;;;17.50;9.15;;;;;;;18.44;51.11;101491.91;4979572;28;99262;-69
2022/05/05 05:10:01;;;;;;;12.93;7.68;;;;;;;18.22;51.74;101483.34;4983157;28;102251;-68
2022/05/05 05:12:28;;;;;;;12.77;8.02;;;;;;;18.09;51.63;101487.63;4987752;28;96940;-69
2022/05/05 05:14:54;;;;;;;14.88;8.32;;;;;;;17.64;52.76;101482.97;4986708;28;98589;-69
2022/05/05 05:17:21;;;;;;;14.38;8.48;;;;;;;17.11;54.95;101492.78;4980548;28;99388;-68
2022/05/05 05:19:49;;;;;;;13.93;8.25;;;;;;;17.13;54.19;101493.56;4975510;28;99066;-69
2022/05/05 05:22:15;;;;;;;20.80;8.57;;;;;;;16.84;55.33;101496.84;4981826;28;97294;-68
2022/05/05 05:24:41;;;;;;;12.60;8.02;;;;;;;17.45;54.10;101499.94;4976690;28;97171;-69
2022/05/05 05:27:08;;;;;;;13.73;8.38;;;;;;;17.65;53.09;101496.25;4975452;28;99630;-71
2022/05/05 05:29:35;;;;;;;14.90;8.77;;;;;;;17.78;52.49;101509.84;4988974;28;99276;-69
2022/05/05 05:32:04;;;;;;;21.70;9.32;;;;;;;17.92;51.70;101509.94;4974758;28;99218;-69
2022/05/05 05:34:30;;;;;;;13.18;8.77;;;;;;;18.08;51.33;101516.19;4976051;28;98788;-69
2022/05/05 05:36:58;;;;;;;14.65;8.32;;;;;;;16.69;55.37;101527.81;4971488;28;100741;-68
2022/05/05 05:39:25;;;;;;;17.83;8.93;;;;;;;16.73;55.37;101532.09;4985874;28;98901;-68
2022/05/05 05:41:51;;;;;;;19.05;8.60;;;;;;;17.07;54.79;101527.72;4981849;28;96840;-69
2022/05/05 05:44:18;;;;;;;18.00;9.63;;;;;;;17.71;52.55;101519.13;4987292;28;97609;-70
2022/05/05 05:46:44;;;;;;;11.88;7.72;;;;;;;18.24;51.30;101521.56;4978296;28;97603;-69
2022/05/05 05:49:11;;;;;;;18.23;8.77;;;;;;;18.10;51.13;101519.66;4980048;28;98132;-69
2022/05/05 05:51:37;;;;;;;22.88;8.57;;;;;;;18.34;50.15;101525.47;4981659;28;96781;-71
2022/05/05 05:54:06;;;;;;;17.67;8.95;;;;;;;17.91;50.77;101527.81;4990038;28;97239;-71
2022/05/05 05:56:33;;;;;;;18.23;8.57;;;;;;;17.25;52.73;101537.50;4979689;28;98450;-70
2022/05/05 05:59:01;;;;;;;16.30;8.30;;;;;;;17.61;52.47;101539.25;4984197;28;102023;-70
2022/05/05 06:04:10;;;;;;;15.57;7.88;;;;;;;18.19;50.43;101545.00;4985161;28;96718;-68
2022/05/05 06:06:36;;;;;;;18.08;7.75;;;;;;;18.05;50.51;101551.09;4981804;28;99009;-68
2022/05/05 06:09:04;;;;;;;17.17;9.15;;;;;;;17.10;53.18;101560.50;4985719;28;99140;-68
2022/05/05 06:11:31;;;;;;;17.17;8.43;;;;;;;17.81;51.26;101558.63;4986946;28;98574;-67
2022/05/05 06:13:58;;;;;;;23.58;9.38;;;;;;;17.95;51.51;101549.03;4983903;28;97235;-67
2022/05/05 06:16:28;;;;;;;14.60;8.07;;;;;;;17.79;51.14;101557.84;4977885;28;99088;-69
2022/05/05 06:18:54;;;;;;;16.02;7.65;;;;;;;18.38;49.68;101559.09;4978048;28;99472;-69
2022/05/05 06:21:21;;;;;;;18.30;9.00;;;;;;;18.55;49.36;101564.44;4977633;28;98197;-69
2022/05/05 06:23:48;;;;;;;17.27;8.43;;;;;;;18.22;49.48;101563.59;4979203;28;97334;-69
2022/05/05 06:26:14;;;;;;;17.77;8.10;;;;;;;17.77;50.24;101566.91;4976135;28;99007;-69
2022/05/05 06:28:44;;;;;;;21.52;8.80;;;;;;;18.04;49.80;101564.59;4983946;28;97623;-68
2022/05/05 06:31:11;;;;;;;21.60;9.10;;;;;;;17.67;50.62;101563.84;4981850;28;99337;-69
2022/05/05 06:33:38;;;;;;;13.88;8.38;;;;;;;17.42;51.33;101571.34;4980228;28;98860;-68
2022/05/05 06:36:05;;;;;;;16.67;8.10;;;;;;;17.60;51.07;101570.41;4975745;28;97625;-69
2022/05/05 06:38:32;;;;;;;18.60;9.25;;;;;;;16.83;52.51;101566.31;4984355;28;102336;-69
2022/05/05 06:40:59;;;;;;;21.23;8.68;;;;;;;17.99;49.93;101577.31;4978361;28;97104;-68
2022/05/05 06:43:26;;;;;;;19.63;8.85;;;;;;;17.73;50.22;101574.22;4983450;28;96820;-70
2022/05/05 06:45:54;;;;;;;22.70;8.93;;;;;;;17.94;49.64;101582.91;4978834;28;98451;-70
2022/05/05 06:48:21;;;;;;;19.13;9.02;;;;;;;17.53;50.40;101585.91;4987517;28;96721;-68
2022/05/05 06:50:48;;;;;;;16.42;9.43;;;;;;;18.57;48.27;101585.78;4987847;28;96976;-68
2022/05/05 06:53:14;;;;;;;15.40;8.40;;;;;;;18.76;47.36;101582.94;4994755;28;97074;-69
2022/05/05 06:55:41;;;;;;;20.75;9.13;;;;;;;18.87;47.36;101599.25;4986857;28;97756;-68
2022/05/05 06:58:08;;;;;;;16.80;8.35;;;;;;;19.40;46.20;101610.44;4983704;28;97865;-68
2022/05/05 07:03:20;;;;;;;20.27;8.38;;;;;;;19.37;45.99;101604.38;4988643;28;96787;-68
2022/05/05 07:05:45;;;;;;;16.95;7.97;;;;;;;18.96;46.41;101604.09;4985708;28;99020;-68
2022/05/05 07:08:12;;;;;;;;;;;;;;;18.95;46.70;101605.03;4980471;28;98815;-68
2022/05/05 07:10:53;;;;;;;16.03;8.00;;;;;;;18.54;47.84;101608.19;4985849;28;96780;-68
2022/05/05 07:13:19;;;;;;;13.73;8.00;;;;;;;18.39;48.18;101609.00;4982657;28;97246;-68
2022/05/05 07:15:47;;;;;;;14.43;8.23;;;;;;;19.72;45.37;101610.34;4984595;28;99056;-68
2022/05/05 07:18:13;;;;;;;21.48;9.07;;;;;;;19.45;45.36;101608.31;4984654;28;98124;-68
2022/05/05 07:20:44;;;;;;;14.52;7.70;;;;;;;19.70;44.96;101610.44;4991075;28;97012;-68
2022/05/05 07:23:14;;;;;;;14.23;8.23;;;;;;;19.48;45.28;101618.91;4985940;28;96805;-69
2022/05/05 07:25:41;;;;;;;22.80;15.35;;;;;;;18.76;47.30;101617.75;4986796;28;99526;-70
2022/05/05 07:28:08;;;;;;;15.80;7.50;;;;;;;19.25;45.86;101619.34;4985298;28;98802;-69
2022/05/05 07:30:35;;;;;;;16.15;8.68;;;;;;;20.21;43.74;101621.66;4987378;28;96885;-69
2022/05/05 07:33:02;;;;;;;13.90;7.45;;;;;;;20.03;43.81;101631.69;4985661;28;96825;-69
2022/05/05 07:35:28;;;;;;;12.93;8.15;;;;;;;20.01;43.79;101627.38;4990039;28;99012;-68
2022/05/05 07:37:56;;;;;;;13.55;7.40;;;;;;;20.95;42.05;101632.16;4980330;28;100055;-68
2022/05/05 07:40:26;;;;;;;22.15;7.78;;;;;;;20.11;43.47;101634.78;4986393;28;97113;-69
2022/05/05 07:42:52;;;;;;;13.48;7.70;;;;;;;20.69;42.07;101629.34;4992916;28;96912;-68
2022/05/05 07:45:19;;;;;;;23.60;8.60;;;;;;;20.35;42.92;101643.16;4984917;28;98843;-69
2022/05/05 07:47:46;;;;;;;16.20;8.18;;;;;;;21.26;41.25;101637.31;4982803;28;98860;-69
2022/05/05 07:50:13;;;;;;;16.35;8.27;;;;;;;20.55;41.99;101637.41;4984616;28;96756;-68
2022/05/05 07:52:40;;;;;;;15.02;7.95;;;;;;;20.79;42.07;101642.19;4986635;28;96801;-68
2022/05/05 07:55:09;;;;;;;20.35;8.07;;;;;;;20.58;42.97;101641.72;4983665;28;99022;-68
2022/05/05 07:57:43;;;;;;;11.95;7.03;;;;;;;21.78;40.31;101645.44;4986013;28;100941;-69
2022/05/05 08:00:12;;;;;;;16.92;8.57;;;;;;;22.02;39.61;101637.53;4984489;28;96972;-69
2022/05/05 08:02:38;;;;;;;16.23;8.20;;;;;;;22.77;38.11;101632.25;4974901;28;102678;-69
2022/05/05 08:05:07;;;;;;;16.42;8.98;;;;;;;22.19;39.02;101639.91;4984493;28;99597;-68
2022/05/05 08:07:33;;;;;;;16.15;8.20;;;;;;;22.46;38.55;101647.88;4986034;28;99337;-67
2022/05/05 08:10:00;;;;;;;16.35;8.45;;;;;;;22.17;39.07;101635.59;4983251;28;96770;-69
2022/05/05 08:12:29;;;;;;;18.27;8.57;;;;;;;22.21;38.80;101639.78;4978745;28;97153;-68
2022/05/05 08:14:57;;;;;;;16.88;7.78;;;;;;;21.79;39.72;101646.31;4980598;28;100771;-68
2022/05/05 08:17:23;;;;;;;18.50;8.63;;;;;;;21.00;41.40;101641.66;4981673;28;99122;-68
2022/05/05 08:19:49;;;;;;;12.68;8.18;;;;;;;20.75;42.09;101641.50;4979316;28;97630;-69
2022/05/05 08:22:16;;;;;;;16.45;8.30;;;;;;;21.02;40.95;101645.09;4985666;28;96892;-68
2022/05/05 08:30:13;;;;;;;16.60;9.52;;;;;;;21.48;40.65;101642.97;4987626;28;97327;-69
2022/05/05 08:32:39;;;;;;;12.85;7.35;;;;;;;21.70;40.14;101647.78;4981164;28;96667;-68
2022/05/05 08:35:06;;;;;;;17.17;7.70;;;;;;;21.77;39.49;101653.59;4985641;28;101897;-68
2022/05/05 08:37:32;;;;;;;14.98;7.18;;;;;;;21.34;40.41;101653.78;4983371;28;99357;-70
2022/05/05 08:39:58;;;;;;;13.60;7.60;;;;;;;21.37;40.51;101655.41;4986280;28;96859;-67
2022/05/05 08:42:25;;;;;;;12.68;6.97;;;;;;;21.18;40.24;101654.91;4985964;28;96709;-68
2022/05/05 08:44:53;;;;;;;12.55;7.65;;;;;;;21.58;39.66;101656.69;4975385;28;99327;-69
2022/05/05 08:47:24;;;;;;;15.43;7.80;;;;;;;20.59;42.18;101660.44;4985915;28;98848;-69
2022/05/05 08:49:52;;;;;;;21.58;7.82;;;;;;;20.95;41.24;101654.53;4983989;28;96778;-69
2022/05/05 08:52:23;;;;;;;14.55;7.45;;;;;;;21.26;40.65;101655.28;4985878;28;96860;-69
2022/05/05 08:54:50;;;;;;;12.63;6.88;;;;;;;21.12;40.35;101653.44;4986256;28;99039;-67
2022/05/05 08:57:16;;;;;;;9.10;5.95;;;;;;;21.09;40.35;101654.50;4984507;28;101709;-69
2022/05/05 08:59:43;;;;;;;9.52;6.35;;;;;;;20.50;41.14;101662.81;4982611;28;96748;-69
2022/05/05 09:02:11;;;;;;;11.90;6.15;;;;;;;20.71;40.97;101661.47;4983497;28;96782;-68
2022/05/05 09:04:38;;;;;;;11.77;6.82;;;;;;;20.77;41.32;101657.53;4977718;28;97825;-69
2022/05/05 09:07:04;;;;;;;11.70;6.57;;;;;;;21.02;40.55;101665.75;4977011;28;97547;-69
2022/05/05 09:09:32;;;;;;;13.48;6.38;;;;;;;19.84;43.10;101660.56;4982854;28;97015;-68
2022/05/05 09:12:13;;;;;;;11.27;5.78;;;;;;;20.44;41.29;101666.75;4984460;28;97226;-68
2022/05/05 09:14:41;;;;;;;12.13;6.50;;;;;;;21.16;39.62;101654.13;4983239;28;98980;-69
2022/05/05 09:17:10;;;;;;;15.02;6.63;;;;;;;20.88;39.91;101663.06;4983401;28;101689;-67
2022/05/05 09:19:40;;;;;;;13.20;6.13;;;;;;;21.76;38.70;101662.63;4982060;28;96944;-68
2022/05/05 09:22:08;;;;;;;13.63;5.65;;;;;;;21.75;38.38;101675.22;4985374;28;97393;-68
2022/05/05 09:24:40;;;;;;;12.32;6.55;;;;;;;21.38;38.32;101659.84;4980266;28;99158;-68
2022/05/05 09:27:27;;;;;;;15.93;6.30;;;;;;;20.87;39.79;101667.56;4986886;28;99129;-68
2022/05/05 09:30:03;;;;;;;9.05;5.32;;;;;;;21.58;38.08;101667.44;4984138;28;97087;-68
2022/05/05 09:32:31;;;;;;;13.77;6.13;;;;;;;20.43;40.12;101667.69;4983616;28;96841;-67
2022/05/05 09:35:01;;;;;;;11.32;5.78;;;;;;;20.93;39.25;101674.41;4984036;28;98960;-67
2022/05/05 09:37:29;;;;;;;15.48;5.60;;;;;;;21.53;37.70;101677.59;4984200;28;98753;-68
2022/05/05 09:39:56;;;;;;;11.80;5.45;;;;;;;20.22;40.05;101677.91;4985968;28;96822;-69
2022/05/05 09:42:42;;;;;;;12.25;5.63;;;;;;;20.38;38.18;101674.31;4982058;28;96972;-68
2022/05/05 09:45:16;;;;;;;10.32;5.30;;;;;;;20.37;38.31;101688.69;4984920;28;102435;-69
2022/05/05 09:47:43;;;;;;;16.35;6.15;;;;;;;21.35;36.85;101689.59;4972364;28;98866;-69
2022/05/05 09:50:12;;;;;;;13.20;5.05;;;;;;;21.46;36.84;101685.22;4979746;28;96782;-68
2022/05/05 09:58:11;;;;;;;;;;;;;;;20.98;38.15;101697.31;4983849;28;97491;-68
2022/05/05 10:00:45;;;;;;;;;;;;;;;21.93;36.30;101691.06;4981123;28;96864;-69
2022/05/05 10:05:59;;;;;;;;;;;;;;;22.82;34.89;101687.53;4985082;28;97193;-69
2022/05/05 10:08:34;;;;;;;;;;;;;;;23.30;33.99;101693.00;4986766;28;98753;-68
2022/05/05 10:11:01;;;;;;;;;;;;;;;22.12;35.43;101686.22;4987017;28;96824;-68
2022/05/05 10:13:30;;;;;;;;;;;;;;;21.33;36.74;101696.91;4987264;28;97432;-68
2022/05/05 10:15:58;;;;;;;;;;;;;;;21.62;35.52;101694.97;4984430;28;98803;-69
2022/05/05 10:18:25;;;;;;;;;;;;;;;21.60;34.97;101689.69;4980491;28;101207;-68
2022/05/05 10:20:52;;;;;;;;;;;;;;;22.08;34.43;101690.94;4984840;28;97205;-68
2022/05/05 10:23:22;;;;;;;;;;;;;;;22.09;34.21;101692.66;4987539;28;96915;-68
2022/05/05 10:25:51;;;;;;;;;;;;;;;21.94;33.96;101690.97;4984881;28;98289;-68
2022/05/05 10:28:36;;;;;;;;;;;;;;;22.84;32.49;101690.13;4981576;28;101101;-68
2022/05/05 10:31:02;;;;;;;;;;;;;;;22.71;32.93;101681.97;4985814;28;97276;-68
2022/05/05 10:33:43;;;;;;;;;;;;;;;22.05;33.64;101691.16;4979936;28;96838;-69
2022/05/05 10:36:22;;;;;;;;;;;;;;;21.73;34.51;101698.66;4985647;28;99444;-68
2022/05/05 10:38:51;;;;;;;;;;;;;;;22.08;34.10;101708.91;4987009;28;99115;-69
2022/05/05 10:41:37;;;;;;;;;;;;;;;21.66;34.38;101701.88;4985772;28;97192;-68
2022/05/05 10:44:26;;;;;;;;;;;;;;;22.65;33.43;101702.16;4982766;28;97376;-68
2022/05/05 10:47:02;;;;;;;;;;;;;;;22.75;32.82;101699.72;4983624;28;101529;-69
2022/05/05 10:49:45;;;;;;;;;;;;;;;23.48;31.30;101693.50;4982855;28;99999;-67
2022/05/05 10:52:31;;;;;;;;;;;;;;;23.85;30.73;101695.13;4989994;28;96846;-69
2022/05/05 10:55:18;;;;;;;;;;;;;;;23.64;31.17;101702.16;4984325;28;97324;-68
2022/05/05 10:57:45;;;;;;;;;;;;;;;23.20;32.07;101698.22;4982052;28;99055;-68
2022/05/05 11:00:12;;;;;;;;;;;;;;;22.96;32.52;101702.69;4985383;28;97430;-69
2022/05/05 11:02:39;;;;;;;;;;;;;;;23.39;31.63;101698.56;4983552;28;97057;-69
2022/05/05 11:05:26;;;;;;;;;;;;;;;23.34;31.07;101697.19;4985294;28;96797;-69
2022/05/05 11:07:52;;;;;;;;;;;;;;;24.22;29.82;101701.28;4979804;28;97972;-69
2022/05/05 11:10:37;;;;;;;;;;;;;;;24.42;29.03;101702.44;4986913;28;98762;-69
2022/05/05 11:13:05;;;;;;;;;;;;;;;24.56;28.81;101700.38;4988953;28;96787;-69
2022/05/05 11:23:57;;;;;;;;;;;;;;;24.00;29.48;101702.06;4985184;28;97194;-68
2022/05/05 11:26:23;;;;;;;;;;;;;;;24.18;29.56;101702.50;4988469;28;96917;-69
2022/05/05 11:28:51;;;;;;;;;;;;;;;23.62;30.27;101701.44;4987968;28;98242;-68
2022/05/05 11:31:21;;;;;;;;;;;;;;;23.94;30.07;101698.97;4982167;28;99097;-67
2022/05/05 11:33:48;;;;;;;;;;;;;;;23.64;30.45;101707.56;4983452;28;97238;-69
2022/05/05 11:36:14;;;;;;;;;;;;;;;;;;4986546;28;96978;-69
2022/05/05 11:38:42;;;;;;;;;;;;;;;21.62;33.39;101703.91;4987933;28;98517;-70
2022/05/05 11:41:08;;;;;;;;;;;;;;;22.50;32.37;101707.78;4983614;28;97631;-69
2022/05/05 11:46:21;;;;;;;;;;;;;;;21.91;34.01;101714.56;4985166;28;98042;-70
2022/05/05 11:48:54;;;;;;;;;;;;;;;21.34;35.10;101714.75;4985582;28;99459;-69
2022/05/05 11:51:21;;;;;;;;;;;;;;;21.87;34.57;101717.44;4980496;28;98100;-70
2022/05/05 11:53:48;;;;;;;;;;;;;;;22.50;33.39;101719.41;4983977;28;97616;-69
2022/05/05 11:56:15;;;;;;;;;;;;;;;23.07;32.51;101716.25;4983144;28;98160;-68
2022/05/05 12:01:42;;;;;;;;;;;;;;;23.31;31.43;101714.44;4983911;28;97257;-70
2022/05/05 12:04:10;;;;;;;;;;;;;;;23.18;31.83;101710.06;4982257;28;97143;-71
2022/05/05 12:06:37;;;;;;;;;;;;;;;23.57;31.19;101707.16;4985369;28;98141;-69
2022/05/05 12:09:05;;;;;;;;;;;;;;;23.19;31.97;101703.69;4986890;28;98853;-68
2022/05/05 12:11:32;;;;;;;;;;;;;;;23.75;30.64;101710.31;4983739;28;98884;-71
2022/05/05 12:14:03;;;;;;;;;;;;;;;22.39;32.36;101713.88;4990584;28;97441;-69
2022/05/05 12:16:32;;;;;;;;;;;;;;;21.42;33.81;101712.41;4987190;28;96841;-68